createdAt,value
2022-10-08T00:00:13.489Z,96212.97
2022-10-08T00:02:59.482Z,96207.09
2022-10-08T00:05:58.227Z,96202.34
2022-10-08T00:08:55.887Z,96190.56
2022-10-08T00:11:42.699Z,96192.22
2022-10-08T00:14:28.475Z,96182.56
2022-10-08T00:17:14.369Z,96192.22
2022-10-08T00:20:00.351Z,96197.69
2022-10-08T00:22:46.250Z,96193.38
2022-10-08T00:25:32.267Z,96192.84
2022-10-08T00:28:18.007Z,96195.03
2022-10-08T00:31:08.370Z,96191.03
2022-10-08T00:33:56.631Z,96191.59
2022-10-08T00:36:42.909Z,96178.94
2022-10-08T00:39:28.714Z,96178.94
2022-10-08T00:42:14.739Z,96174.09
2022-10-08T00:45:01.078Z,96170.63
2022-10-08T00:47:48.409Z,96173.09
2022-10-08T00:50:35.116Z,96173.66
2022-10-08T00:53:21.375Z,96170.44
2022-10-08T00:56:07.300Z,96167.03
2022-10-08T00:58:53.565Z,96160.38
2022-10-08T01:01:43.739Z,96157.78
2022-10-08T01:04:29.941Z,96153.75
2022-10-08T01:07:28.607Z,96151.38
2022-10-08T01:10:16.434Z,96155.19
2022-10-08T01:13:09.270Z,96148.78
2022-10-08T01:16:33.368Z,96147.72
2022-10-08T01:19:40.726Z,96153.16
2022-10-08T01:22:32.549Z,96154.00
2022-10-08T01:25:34.918Z,96146.19
2022-10-08T01:28:33.449Z,96145.94
2022-10-08T01:31:26.099Z,96140.34
2022-10-08T01:34:26.408Z,96148.94
2022-10-08T01:37:17.710Z,96146.75
2022-10-08T01:40:08.204Z,96141.94
2022-10-08T01:42:54.891Z,96140.84
2022-10-08T01:45:43.398Z,96146.22
2022-10-08T01:48:35.836Z,96144.66
2022-10-08T01:51:29.241Z,96140.34
2022-10-08T01:54:16.378Z,96144.13
2022-10-08T01:57:05.782Z,96141.69
2022-10-08T01:59:58.087Z,96143.06
2022-10-08T02:02:44.792Z,96130.66
2022-10-08T02:05:34.379Z,96134.16
2022-10-08T02:08:21.546Z,96134.44
2022-10-08T02:11:07.643Z,96138.19
2022-10-08T02:13:53.395Z,96139.34
2022-10-08T02:16:46.029Z,96128.31
2022-10-08T02:20:00.226Z,96132.41
2022-10-08T02:23:11.286Z,96125.75
2022-10-08T02:26:04.297Z,96120.66
2022-10-08T02:29:04.180Z,96128.78
2022-10-08T02:31:54.788Z,96113.16
2022-10-08T02:34:57.550Z,96118.56
2022-10-08T02:37:47.621Z,96122.31
2022-10-08T02:40:34.460Z,96119.09
2022-10-08T02:43:24.678Z,96121.84
2022-10-08T02:46:19.573Z,96118.91
2022-10-08T02:49:24.360Z,96125.69
2022-10-08T02:52:10.817Z,96121.38
2022-10-08T02:55:00.485Z,96119.28
2022-10-08T02:57:52.045Z,96118.81
2022-10-08T03:00:51.821Z,96123.09
2022-10-08T03:03:42.295Z,96126.31
2022-10-08T03:06:28.834Z,96105.84
2022-10-08T03:09:15.216Z,96118.75
2022-10-08T03:12:01.523Z,96115.53
2022-10-08T03:14:49.545Z,96118.16
2022-10-08T03:17:56.135Z,96124.66
2022-10-08T03:20:45.606Z,96123.00
2022-10-08T03:23:31.694Z,96121.38
2022-10-08T03:26:19.004Z,96123.00
2022-10-08T03:29:06.247Z,96120.84
2022-10-08T03:31:53.389Z,96108.78
2022-10-08T03:35:13.851Z,96124.34
2022-10-08T03:38:00.427Z,96116.00
2022-10-08T03:40:57.836Z,96105.28
2022-10-08T03:43:44.185Z,96112.28
2022-10-08T03:46:34.220Z,96090.31
2022-10-08T03:49:20.214Z,96108.56
2022-10-08T03:52:06.291Z,96113.16
2022-10-08T03:54:52.491Z,96115.09
2022-10-08T03:57:38.217Z,96124.78
2022-10-08T04:00:23.854Z,96117.28
2022-10-08T04:03:09.922Z,96120.53
2022-10-08T04:05:56.310Z,96123.78
2022-10-08T04:08:42.386Z,96118.69
2022-10-08T04:11:29.385Z,96115.72
2022-10-08T04:14:15.412Z,96118.16
2022-10-08T04:17:01.040Z,96115.72
2022-10-08T04:19:46.665Z,96111.16
2022-10-08T04:22:32.710Z,96114.13
2022-10-08T04:25:18.519Z,96118.16
2022-10-08T04:28:05.281Z,96115.72
2022-10-08T04:31:03.210Z,96112.53
2022-10-08T04:33:51.521Z,96110.91
2022-10-08T04:36:39.248Z,96122.75
2022-10-08T04:39:25.039Z,96116.84
2022-10-08T04:42:10.707Z,96117.38
2022-10-08T04:44:56.553Z,96108.00
2022-10-08T04:47:43.639Z,96116.88
2022-10-08T04:50:29.644Z,96113.09
2022-10-08T04:53:15.584Z,96122.78
2022-10-08T04:56:28.416Z,96128.16
2022-10-08T04:59:14.329Z,96122.25
2022-10-08T05:02:00.550Z,96129.28
2022-10-08T05:04:46.718Z,96124.44
2022-10-08T05:07:32.483Z,96119.34
2022-10-08T05:10:18.342Z,96136.00
2022-10-08T05:13:04.917Z,96127.13
2022-10-08T05:15:50.561Z,96131.16
2022-10-08T05:18:37.706Z,96140.59
2022-10-08T05:21:26.330Z,96138.69
2022-10-08T05:24:12.352Z,96123.38
2022-10-08T05:26:59.214Z,96134.66
2022-10-08T05:29:45.565Z,96136.25
2022-10-08T05:32:31.882Z,96131.41
2022-10-08T05:35:17.529Z,96143.50
2022-10-08T05:38:03.166Z,96139.50
2022-10-08T05:40:49.278Z,96140.53
2022-10-08T05:43:35.406Z,96144.56
2022-10-08T05:46:25.166Z,96131.41
2022-10-08T05:49:18.164Z,96143.22
2022-10-08T05:52:04.143Z,96148.31
2022-10-08T05:54:49.975Z,96146.97
2022-10-08T05:57:35.636Z,96146.97
2022-10-08T06:00:21.452Z,96163.63
2022-10-08T06:03:07.229Z,96156.34
2022-10-08T06:05:53.315Z,96165.22
2022-10-08T06:08:39.202Z,96165.22
2022-10-08T06:11:28.335Z,96162.53
2022-10-08T06:14:16.902Z,96160.38
2022-10-08T06:17:02.955Z,96166.84
2022-10-08T06:19:48.717Z,96154.19
2022-10-08T06:22:34.439Z,96154.16
2022-10-08T06:25:20.222Z,96157.13
2022-10-08T06:28:08.973Z,96156.56
2022-10-08T06:30:54.809Z,96154.41
2022-10-08T06:33:40.916Z,96153.31
2022-10-08T06:36:28.656Z,96139.31
2022-10-08T06:39:15.825Z,96152.72
2022-10-08T06:42:01.657Z,96153.75
2022-10-08T06:44:59.959Z,96156.44
2022-10-08T06:47:49.502Z,96147.78
2022-10-08T06:50:36.467Z,96149.34
2022-10-08T06:53:22.450Z,96160.59
2022-10-08T06:56:11.335Z,96147.66
2022-10-08T06:58:57.482Z,96154.59
2022-10-08T07:01:44.035Z,96158.31
2022-10-08T07:04:29.888Z,96148.59
2022-10-08T07:07:15.524Z,96156.03
2022-10-08T07:10:01.813Z,96148.47
2022-10-08T07:12:48.110Z,96145.94
2022-10-08T07:15:33.997Z,96143.97
2022-10-08T07:18:19.849Z,96142.31
2022-10-08T07:21:07.572Z,96137.91
2022-10-08T07:23:53.400Z,96131.06
2022-10-08T07:26:39.262Z,96132.84
2022-10-08T07:29:26.417Z,96131.13
2022-10-08T07:32:12.584Z,96129.66
2022-10-08T07:35:00.102Z,96124.50
2022-10-08T07:37:46.374Z,96121.41
2022-10-08T07:40:32.187Z,96113.97
2022-10-08T07:43:19.839Z,96113.56
2022-10-08T07:46:06.201Z,96119.25
2022-10-08T07:48:53.683Z,96108.59
2022-10-08T07:51:44.391Z,96113.25
2022-10-08T07:54:30.457Z,96121.13
2022-10-08T07:57:16.474Z,96108.19
2022-10-08T08:00:02.676Z,96109.84
2022-10-08T08:02:58.409Z,96105.78
2022-10-08T08:05:44.416Z,96112.56
2022-10-08T08:08:30.450Z,96110.34
2022-10-08T08:11:19.441Z,96106.50
2022-10-08T08:14:05.388Z,96107.78
2022-10-08T08:16:51.340Z,96105.91
2022-10-08T08:19:40.268Z,96098.56
2022-10-08T08:22:26.324Z,96105.28
2022-10-08T08:25:12.011Z,96104.97
2022-10-08T08:27:57.770Z,96100.91
2022-10-08T08:30:43.862Z,96104.56
2022-10-08T08:33:30.021Z,96102.59
2022-10-08T08:36:16.194Z,96102.53
2022-10-08T08:39:02.758Z,96094.63
2022-10-08T08:42:07.223Z,96086.16
2022-10-08T08:44:59.855Z,96090.09
2022-10-08T08:47:51.997Z,96096.56
2022-10-08T08:50:40.650Z,96083.53
2022-10-08T08:53:31.378Z,96082.97
2022-10-08T08:56:19.987Z,96079.66
2022-10-08T08:59:18.680Z,96076.03
2022-10-08T09:02:15.350Z,96071.72
2022-10-08T09:05:06.428Z,96072.22
2022-10-08T09:08:45.597Z,96065.16
2022-10-08T09:11:31.396Z,96062.41
2022-10-08T09:14:38.920Z,96060.41
2022-10-08T09:17:32.860Z,96059.13
2022-10-08T09:20:20.303Z,96065.84
2022-10-08T09:23:14.545Z,96035.81
2022-10-08T09:26:18.289Z,96050.13
2022-10-08T09:29:05.479Z,96044.06
2022-10-08T09:31:51.373Z,96029.03
2022-10-08T09:34:38.534Z,96041.97
2022-10-08T09:37:25.604Z,96030.13
2022-10-08T09:40:23.374Z,96024.38
2022-10-08T09:43:19.057Z,96030.34
2022-10-08T09:46:12.161Z,96028.34
2022-10-08T09:53:06.419Z,96002.91
2022-10-08T09:55:56.548Z,96014.53
2022-10-08T09:58:55.248Z,96000.16
2022-10-08T10:01:45.875Z,96009.50
2022-10-08T10:04:36.986Z,95997.25
2022-10-08T10:07:23.885Z,95999.13
2022-10-08T10:10:39.511Z,95999.34
2022-10-08T10:13:33.773Z,95987.06
2022-10-08T10:16:36.861Z,95990.78
2022-10-08T10:19:26.200Z,95972.38
2022-10-08T10:22:16.028Z,95969.22
2022-10-08T10:25:13.162Z,95972.00
2022-10-08T10:28:03.455Z,95969.03
2022-10-08T10:31:07.023Z,95961.47
2022-10-08T10:33:58.160Z,95957.00
2022-10-08T10:36:53.071Z,95950.38
2022-10-08T10:39:43.075Z,95954.06
2022-10-08T10:42:34.810Z,95946.69
2022-10-08T10:45:22.993Z,95938.41
2022-10-08T10:48:11.766Z,95942.03
2022-10-08T10:51:07.702Z,95941.50
2022-10-08T10:54:12.159Z,95938.94
2022-10-08T10:57:02.853Z,95933.16
2022-10-08T11:00:22.910Z,95921.53
2022-10-08T11:03:27.814Z,95912.41
2022-10-08T11:06:29.760Z,95917.44
2022-10-08T11:09:38.599Z,95915.06
2022-10-08T11:12:28.939Z,95901.72
2022-10-08T11:15:23.394Z,95901.19
2022-10-08T11:18:15.376Z,95905.41
2022-10-08T11:21:29.448Z,95889.03
2022-10-08T11:24:24.835Z,95890.63
2022-10-08T11:27:34.320Z,95881.59
2022-10-08T11:30:31.463Z,95880.75
2022-10-08T11:33:18.320Z,95863.69
2022-10-08T11:36:13.554Z,95865.91
2022-10-08T11:39:21.038Z,95862.75
2022-10-08T11:42:48.166Z,95853.13
2022-10-08T11:45:43.162Z,95848.22
2022-10-08T11:48:36.082Z,95854.31
2022-10-08T11:51:23.924Z,95855.38
2022-10-08T11:54:38.440Z,95833.03
2022-10-08T11:58:06.286Z,95827.59
2022-10-08T12:00:46.054Z,95816.47
2022-10-08T12:03:42.614Z,95813.19
2022-10-08T12:06:30.627Z,95818.19
2022-10-08T12:09:23.901Z,95811.69
2022-10-08T12:12:13.810Z,95798.81
2022-10-08T12:14:59.861Z,95795.44
2022-10-08T12:17:53.556Z,95791.81
2022-10-08T12:20:41.220Z,95792.34
2022-10-08T12:23:30.109Z,95792.66
2022-10-08T12:26:16.668Z,95790.66
2022-10-08T12:29:03.302Z,95786.41
2022-10-08T12:32:02.128Z,95787.09
2022-10-08T12:34:48.377Z,95775.25
2022-10-08T12:37:52.617Z,95772.25
2022-10-08T12:40:44.767Z,95769.22
2022-10-08T12:43:41.678Z,95760.00
2022-10-08T12:46:50.491Z,95757.50
2022-10-08T12:50:25.716Z,95762.69
2022-10-08T12:53:14.499Z,95754.63
2022-10-08T12:56:00.730Z,95754.63
2022-10-08T12:58:47.600Z,95753.66
2022-10-08T13:01:34.651Z,95760.97
2022-10-08T13:04:22.040Z,95750.38
2022-10-08T13:07:28.332Z,95748.00
2022-10-08T13:10:20.368Z,95749.53
2022-10-08T13:13:29.663Z,95733.47
2022-10-08T13:16:21.525Z,95745.81
2022-10-08T13:19:18.845Z,95733.88
2022-10-08T13:22:08.814Z,95729.00
2022-10-08T13:24:54.754Z,95734.84
2022-10-08T13:27:40.681Z,95736.63
2022-10-08T13:30:30.213Z,95738.53
2022-10-08T13:33:21.197Z,95734.63
2022-10-08T13:36:23.780Z,95733.88
2022-10-08T13:39:45.165Z,95732.88
2022-10-08T13:42:33.950Z,95733.88
2022-10-08T13:45:30.762Z,95728.66
2022-10-08T13:48:16.808Z,95726.88
2022-10-08T13:51:04.147Z,95719.19
2022-10-08T13:53:54.877Z,95717.47
2022-10-08T13:56:42.665Z,95725.38
2022-10-08T13:59:30.825Z,95723.03
2022-10-08T14:02:17.048Z,95719.97
2022-10-08T14:05:03.157Z,95714.41
2022-10-08T14:07:52.531Z,95719.28
2022-10-08T14:10:40.772Z,95704.50
2022-10-08T14:13:26.693Z,95711.03
2022-10-08T14:16:13.499Z,95707.41
2022-10-08T14:18:59.608Z,95706.56
2022-10-08T14:21:45.414Z,95698.72
2022-10-08T14:24:31.245Z,95705.00
2022-10-08T14:27:17.365Z,95703.38
2022-10-08T14:30:03.759Z,95708.09
2022-10-08T14:32:49.788Z,95709.50
2022-10-08T14:35:35.540Z,95699.28
2022-10-08T14:38:21.366Z,95709.59
2022-10-08T14:41:07.366Z,95706.22
2022-10-08T14:43:53.069Z,95698.66
2022-10-08T14:46:39.025Z,95707.69
2022-10-08T14:49:24.985Z,95686.94
2022-10-08T14:52:10.936Z,95707.97
2022-10-08T14:54:57.175Z,95703.56
2022-10-08T14:57:44.141Z,95697.94
2022-10-08T15:00:30.442Z,95708.78
2022-10-08T15:03:16.464Z,95705.38
2022-10-08T15:06:02.410Z,95716.13
2022-10-08T15:08:48.468Z,95703.53
2022-10-08T15:11:34.545Z,95703.94
2022-10-08T15:14:20.530Z,95706.31
2022-10-08T15:17:06.492Z,95712.97
2022-10-08T15:19:53.057Z,95701.84
2022-10-08T15:22:39.476Z,95720.69
2022-10-08T15:25:27.464Z,95712.63
2022-10-08T15:28:13.470Z,95717.28
2022-10-08T15:31:06.799Z,95718.69
2022-10-08T15:33:54.511Z,95722.47
2022-10-08T15:36:40.448Z,95716.00
2022-10-08T15:39:29.346Z,95717.47
2022-10-08T15:42:18.087Z,95713.34
2022-10-08T15:45:04.678Z,95713.97
2022-10-08T15:47:50.671Z,95722.44
2022-10-08T15:50:36.397Z,95722.22
2022-10-08T15:53:22.553Z,95721.22
2022-10-08T15:56:08.705Z,95718.63
2022-10-08T15:58:55.052Z,95719.56
2022-10-08T16:01:41.332Z,95723.66
2022-10-08T16:04:27.120Z,95728.09
2022-10-08T16:07:13.383Z,95728.97
2022-10-08T16:09:59.402Z,95733.28
2022-10-08T16:12:45.426Z,95736.19
2022-10-08T16:15:36.774Z,95740.53
2022-10-08T16:18:23.027Z,95744.91
2022-10-08T16:21:10.187Z,95746.50
2022-10-08T16:23:57.103Z,95741.88
2022-10-08T16:26:43.811Z,95746.66
2022-10-08T16:29:29.982Z,95750.66
2022-10-08T16:32:16.127Z,95754.69
2022-10-08T16:35:02.156Z,95751.00
2022-10-08T16:37:47.875Z,95750.31
2022-10-08T16:40:33.727Z,95758.59
2022-10-08T16:43:19.587Z,95763.75
2022-10-08T16:46:05.537Z,95763.84
2022-10-08T16:49:07.994Z,95764.66
2022-10-08T16:51:59.154Z,95764.72
2022-10-08T16:54:45.314Z,95767.09
2022-10-08T16:57:32.904Z,95768.16
2022-10-08T17:00:19.470Z,95772.13
2022-10-08T17:03:05.267Z,95780.50
2022-10-08T17:05:51.203Z,95776.34
2022-10-08T17:08:37.158Z,95780.03
2022-10-08T17:11:23.251Z,95786.88
2022-10-08T17:14:11.655Z,95786.69
2022-10-08T17:16:57.835Z,95783.31
2022-10-08T17:19:44.888Z,95784.13
2022-10-08T17:22:30.969Z,95793.38
2022-10-08T17:25:16.904Z,95787.59
2022-10-08T17:28:02.546Z,95782.47
2022-10-08T17:30:48.521Z,95785.88
2022-10-08T17:33:36.168Z,95789.75
2022-10-08T17:36:24.223Z,95804.31
2022-10-08T17:39:13.193Z,95802.72
2022-10-08T17:42:01.678Z,95804.97
2022-10-08T17:44:49.617Z,95805.63
2022-10-08T17:47:35.827Z,95805.09
2022-10-08T17:50:22.307Z,95811.63
2022-10-08T17:53:08.291Z,95802.75
2022-10-08T17:55:59.282Z,95814.31
2022-10-08T17:58:45.021Z,95814.31
2022-10-08T18:01:32.778Z,95811.91
2022-10-08T18:04:19.551Z,95806.34
2022-10-08T18:07:06.007Z,95801.56
2022-10-08T18:09:52.289Z,95810.88
2022-10-08T18:12:38.654Z,95820.06
2022-10-08T18:15:26.104Z,95826.84
2022-10-08T18:18:12.212Z,95825.13
2022-10-08T18:20:59.201Z,95824.84
2022-10-08T18:23:48.704Z,95820.75
2022-10-08T18:26:37.223Z,95825.91
2022-10-08T18:29:23.069Z,95834.41
2022-10-08T18:32:09.209Z,95834.28
2022-10-08T18:34:55.360Z,95837.19
2022-10-08T18:37:41.311Z,95835.47
2022-10-08T18:40:30.471Z,95843.97
2022-10-08T18:43:16.683Z,95843.50
2022-10-08T18:46:04.125Z,95849.09
2022-10-08T18:48:50.215Z,95849.94
2022-10-08T18:51:36.190Z,95851.59
2022-10-08T18:54:22.386Z,95849.84
2022-10-08T18:57:08.266Z,95858.22
2022-10-08T18:59:54.210Z,95859.34
2022-10-08T19:02:40.424Z,95842.25
2022-10-08T19:05:26.350Z,95854.56
2022-10-08T19:08:12.187Z,95848.50
2022-10-08T19:10:58.381Z,95859.88
2022-10-08T19:13:45.027Z,95859.78
2022-10-08T19:16:31.211Z,95853.56
2022-10-08T19:19:22.108Z,95855.53
2022-10-08T19:22:08.344Z,95852.16
2022-10-08T19:24:54.220Z,95859.19
2022-10-08T19:27:40.174Z,95867.88
2022-10-08T19:30:30.654Z,95870.44
2022-10-08T19:33:18.502Z,95875.06
2022-10-08T19:36:04.724Z,95877.34
2022-10-08T19:38:52.393Z,95872.53
2022-10-08T19:41:39.271Z,95881.19
2022-10-08T19:44:26.033Z,95881.81
2022-10-08T19:47:11.811Z,95885.00
2022-10-08T19:49:57.856Z,95884.84
2022-10-08T19:52:46.504Z,95890.13
2022-10-08T19:55:40.788Z,95889.19
2022-10-08T19:58:26.516Z,95883.38
2022-10-08T20:01:14.625Z,95894.94
2022-10-08T20:04:01.696Z,95893.97
2022-10-08T20:06:47.713Z,95892.84
2022-10-08T20:09:36.320Z,95892.84
2022-10-08T20:12:22.171Z,95895.09
2022-10-08T20:15:10.115Z,95897.31
2022-10-08T20:17:55.924Z,95900.34
2022-10-08T20:20:41.764Z,95900.34
2022-10-08T20:23:27.589Z,95897.81
2022-10-08T20:26:13.515Z,95901.78
2022-10-08T20:29:05.791Z,95905.16
2022-10-08T20:31:55.072Z,95903.25
2022-10-08T20:34:41.007Z,95897.16
2022-10-08T20:37:26.725Z,95902.28
2022-10-08T20:40:12.395Z,95898.13
2022-10-08T20:42:58.350Z,95900.50
2022-10-08T20:45:44.291Z,95899.56
2022-10-08T20:48:34.200Z,95909.63
2022-10-08T20:51:22.713Z,95905.47
2022-10-08T20:54:11.297Z,95907.84
2022-10-08T20:56:57.000Z,95906.72
2022-10-08T20:59:42.841Z,95912.16
2022-10-08T21:02:28.576Z,95915.00
2022-10-08T21:05:14.531Z,95897.59
2022-10-08T21:08:00.541Z,95916.63
2022-10-08T21:10:46.282Z,95918.84
2022-10-08T21:13:32.201Z,95910.19
2022-10-08T21:16:20.669Z,95911.47
2022-10-08T21:19:11.491Z,95908.75
2022-10-08T21:21:57.719Z,95915.31
2022-10-08T21:24:44.209Z,95914.31
2022-10-08T21:27:30.369Z,95914.81
2022-10-08T21:30:16.204Z,95911.88
2022-10-08T21:33:02.095Z,95914.81
2022-10-08T21:35:47.881Z,95909.69
2022-10-08T21:38:34.142Z,95910.91
2022-10-08T21:41:22.083Z,95918.56
2022-10-08T21:44:08.650Z,95913.13
2022-10-08T21:46:54.374Z,95908.50
2022-10-08T21:49:40.041Z,95905.47
2022-10-08T21:52:25.778Z,95895.25
2022-10-08T21:55:12.171Z,95909.91
2022-10-08T21:57:58.261Z,95916.47
2022-10-08T22:00:44.284Z,95906.56
2022-10-08T22:03:30.653Z,95905.44
2022-10-08T22:06:16.657Z,95891.34
2022-10-08T22:09:02.410Z,95905.75
2022-10-08T22:11:49.662Z,95904.75
2022-10-08T22:14:35.786Z,95896.16
2022-10-08T22:17:21.654Z,95904.75
2022-10-08T22:20:07.693Z,95904.75
2022-10-08T22:22:53.715Z,95903.19
2022-10-08T22:25:39.502Z,95898.38
2022-10-08T22:28:25.794Z,95895.19
2022-10-08T22:31:14.229Z,95894.06
2022-10-08T22:34:00.166Z,95894.06
2022-10-08T22:36:46.364Z,95895.19
2022-10-08T22:39:32.222Z,95894.06
2022-10-08T22:42:18.136Z,95899.19
2022-10-08T22:45:04.540Z,95900.28
2022-10-08T22:47:50.757Z,95890.56
2022-10-08T22:50:38.251Z,95899.97
2022-10-08T22:53:24.751Z,95895.34
2022-10-08T22:56:13.586Z,95895.19
2022-10-08T22:59:00.075Z,95904.28
2022-10-08T23:01:45.905Z,95898.88
2022-10-08T23:04:31.789Z,95891.84
2022-10-08T23:07:17.907Z,95896.47
2022-10-08T23:10:03.846Z,95890.66
2022-10-08T23:12:50.297Z,95894.69
2022-10-08T23:15:36.584Z,95902.47
2022-10-08T23:18:22.645Z,95898.91
2022-10-08T23:21:12.482Z,95903.69
2022-10-08T23:23:58.845Z,95901.47
2022-10-08T23:26:44.746Z,95904.69
2022-10-08T23:29:30.863Z,95909.00
2022-10-08T23:32:16.837Z,95906.78
2022-10-08T23:35:02.647Z,95912.69
2022-10-08T23:37:48.694Z,95908.38
2022-10-08T23:40:34.483Z,95913.66
2022-10-08T23:43:20.188Z,95920.69
2022-10-08T23:46:07.137Z,95917.47
2022-10-08T23:48:53.568Z,95914.28
2022-10-08T23:51:39.407Z,95906.59
2022-10-08T23:54:25.504Z,95911.72
2022-10-08T23:57:11.321Z,95906.09
2022-10-08T23:59:57.098Z,95916.13
